sensor_id;sensor_type;location;lat;lon;timestamp;pressure;altitude;pressure_sealevel;temperature;humidity
68654;BME280;55636;51.108;13.622;2022-10-04T00:00:45;100965.78;;;12.98;61.45
68654;BME280;55636;51.108;13.622;2022-10-04T00:01:57;100964.13;;;12.97;61.50
68654;BME280;55636;51.108;13.622;2022-10-04T00:04:33;100956.88;;;12.96;61.46
68654;BME280;55636;51.108;13.622;2022-10-04T00:05:49;100966.06;;;12.97;61.43
68654;BME280;55636;51.108;13.622;2022-10-04T00:07:06;100967.16;;;12.96;61.30
68654;BME280;55636;51.108;13.622;2022-10-04T00:09:57;100957.44;;;12.93;61.40
68654;BME280;55636;51.108;13.622;2022-10-04T00:11:03;100964.91;;;12.93;61.36
68654;BME280;55636;51.108;13.622;2022-10-04T00:12:19;100954.66;;;12.93;61.42
68654;BME280;55636;51.108;13.622;2022-10-04T00:13:24;100959.38;;;12.93;61.48
68654;BME280;55636;51.108;13.622;2022-10-04T00:14:30;100967.44;;;12.94;61.47
68654;BME280;55636;51.108;13.622;2022-10-04T00:15:36;100956.59;;;12.93;61.52
68654;BME280;55636;51.108;13.622;2022-10-04T00:16:40;100962.97;;;12.93;61.34
68654;BME280;55636;51.108;13.622;2022-10-04T00:17:59;100959.63;;;12.91;61.58
68654;BME280;55636;51.108;13.622;2022-10-04T00:23:39;100967.94;;;12.91;61.31
68654;BME280;55636;51.108;13.622;2022-10-04T00:29:35;100959.63;;;12.91;61.40
68654;BME280;55636;51.108;13.622;2022-10-04T00:30:37;100965.16;;;12.91;61.24
68654;BME280;55636;51.108;13.622;2022-10-04T00:33:34;100964.34;;;12.91;61.38
68654;BME280;55636;51.108;13.622;2022-10-04T00:34:47;100963.50;;;12.90;61.41
68654;BME280;55636;51.108;13.622;2022-10-04T00:35:49;100968.19;;;12.90;61.53
68654;BME280;55636;51.108;13.622;2022-10-04T00:36:55;100959.88;;;12.90;61.64
68654;BME280;55636;51.108;13.622;2022-10-04T00:38:11;100963.50;;;12.90;61.38
68654;BME280;55636;51.108;13.622;2022-10-04T00:39:16;100964.34;;;12.91;61.50
68654;BME280;55636;51.108;13.622;2022-10-04T00:40:20;100968.19;;;12.90;61.37
68654;BME280;55636;51.108;13.622;2022-10-04T00:41:23;100963.50;;;12.90;61.51
68654;BME280;55636;51.108;13.622;2022-10-04T00:43:21;100960.97;;;12.89;61.30
68654;BME280;55636;51.108;13.622;2022-10-04T00:45:45;100960.97;;;12.89;61.56
68654;BME280;55636;51.108;13.622;2022-10-04T00:46:50;100965.44;;;12.90;61.44
68654;BME280;55636;51.108;13.622;2022-10-04T00:48:10;100960.72;;;12.90;61.57
68654;BME280;55636;51.108;13.622;2022-10-04T00:49:20;100962.66;;;12.90;61.52
68654;BME280;55636;51.108;13.622;2022-10-04T00:50:38;100954.34;;;12.90;61.71
68654;BME280;55636;51.108;13.622;2022-10-04T00:51:50;100959.06;;;12.89;61.57
68654;BME280;55636;51.108;13.622;2022-10-04T00:52:59;100962.66;;;12.90;61.58
68654;BME280;55636;51.108;13.622;2022-10-04T00:54:05;100959.06;;;12.89;61.67
68654;BME280;55636;51.108;13.622;2022-10-04T00:55:09;100963.75;;;12.89;61.56
68654;BME280;55636;51.108;13.622;2022-10-04T00:56:27;100959.06;;;12.89;61.49
68654;BME280;55636;51.108;13.622;2022-10-04T00:57:41;100956.28;;;12.89;61.57
68654;BME280;55636;51.108;13.622;2022-10-04T00:59:05;100956.28;;;12.89;61.52
68654;BME280;55636;51.108;13.622;2022-10-04T01:00:17;100959.06;;;12.89;61.50
68654;BME280;55636;51.108;13.622;2022-10-04T01:01:22;100957.38;;;12.88;61.61
68654;BME280;55636;51.108;13.622;2022-10-04T01:03:46;100952.66;;;12.89;61.26
68654;BME280;55636;51.108;13.622;2022-10-04T01:05:05;100945.47;;;12.88;61.57
68654;BME280;55636;51.108;13.622;2022-10-04T01:06:10;100951.00;;;12.88;61.18
68654;BME280;55636;51.108;13.622;2022-10-04T01:07:16;100947.38;;;12.87;61.37
68654;BME280;55636;51.108;13.622;2022-10-04T01:08:36;100951.81;;;12.88;61.43
68654;BME280;55636;51.108;13.622;2022-10-04T01:09:52;100954.03;;;12.86;61.45
68654;BME280;55636;51.108;13.622;2022-10-04T01:12:03;100951.00;;;12.88;61.53
68654;BME280;55636;51.108;13.622;2022-10-04T01:13:15;100945.72;;;12.86;61.41
68654;BME280;55636;51.108;13.622;2022-10-04T01:14:25;100941.81;;;12.87;61.44
68654;BME280;55636;51.108;13.622;2022-10-04T01:15:49;100948.22;;;12.88;61.16
68654;BME280;55636;51.108;13.622;2022-10-04T01:16:54;100940.19;;;12.86;61.22
68654;BME280;55636;51.108;13.622;2022-10-04T01:18:18;100939.31;;;12.86;61.31
68654;BME280;55636;51.108;13.622;2022-10-04T01:19:30;100936.56;;;12.86;61.28
68654;BME280;55636;51.108;13.622;2022-10-04T01:20:52;100936.56;;;12.86;61.25
68654;BME280;55636;51.108;13.622;2022-10-04T01:23:02;100940.41;;;12.84;61.19
68654;BME280;55636;51.108;13.622;2022-10-04T01:25:09;100942.09;;;12.86;61.30
68654;BME280;55636;51.108;13.622;2022-10-04T01:26:38;100944.03;;;12.85;61.23
68654;BME280;55636;51.108;13.622;2022-10-04T01:27:44;100943.47;;;12.83;61.16
68654;BME280;55636;51.108;13.622;2022-10-04T01:28:46;100945.97;;;12.84;61.09
68654;BME280;55636;51.108;13.622;2022-10-04T01:29:51;100948.72;;;12.84;61.28
68654;BME280;55636;51.108;13.622;2022-10-04T01:30:54;100947.91;;;12.84;61.46
68654;BME280;55636;51.108;13.622;2022-10-04T01:31:58;100942.63;;;12.82;61.23
68654;BME280;55636;51.108;13.622;2022-10-04T01:33:01;100943.47;;;12.83;61.12
68654;BME280;55636;51.108;13.622;2022-10-04T01:34:05;100943.47;;;12.83;61.40
68654;BME280;55636;51.108;13.622;2022-10-04T01:35:09;100942.63;;;12.82;61.44
68654;BME280;55636;51.108;13.622;2022-10-04T01:36:12;100940.13;;;12.81;61.26
68654;BME280;55636;51.108;13.622;2022-10-04T01:37:15;100942.03;;;12.80;61.12
68654;BME280;55636;51.108;13.622;2022-10-04T01:38:17;100947.31;;;12.82;61.37
68654;BME280;55636;51.108;13.622;2022-10-04T01:39:21;100943.72;;;12.81;61.49
68654;BME280;55636;51.108;13.622;2022-10-04T01:40:24;100934.59;;;12.81;61.45
68654;BME280;55636;51.108;13.622;2022-10-04T01:41:51;100946.75;;;12.80;61.52
68654;BME280;55636;51.108;13.622;2022-10-04T01:43:01;100938.44;;;12.80;61.28
68654;BME280;55636;51.108;13.622;2022-10-04T01:44:10;100939.28;;;12.80;61.50
68654;BME280;55636;51.108;13.622;2022-10-04T01:45:31;100944.81;;;12.80;61.40
68654;BME280;55636;51.108;13.622;2022-10-04T01:46:37;100940.38;;;12.79;61.46
68654;BME280;55636;51.108;13.622;2022-10-04T01:47:48;100942.31;;;12.79;61.18
68654;BME280;55636;51.108;13.622;2022-10-04T01:48:55;100945.91;;;12.79;61.30
68654;BME280;55636;51.108;13.622;2022-10-04T01:50:07;100943.13;;;12.79;61.31
68654;BME280;55636;51.108;13.622;2022-10-04T01:51:26;100940.63;;;12.78;61.51
68654;BME280;55636;51.108;13.622;2022-10-04T01:52:35;100946.19;;;12.78;61.38
68654;BME280;55636;51.108;13.622;2022-10-04T01:53:47;100940.91;;;12.76;61.58
68654;BME280;55636;51.108;13.622;2022-10-04T01:54:59;100938.94;;;12.77;61.39
68654;BME280;55636;51.108;13.622;2022-10-04T01:56:07;100946.44;;;12.76;61.42
68654;BME280;55636;51.108;13.622;2022-10-04T01:57:22;100939.81;;;12.77;61.30
68654;BME280;55636;51.108;13.622;2022-10-04T01:58:28;100945.63;;;12.76;61.36
68654;BME280;55636;51.108;13.622;2022-10-04T01:59:51;100940.06;;;12.76;61.38
68654;BME280;55636;51.108;13.622;2022-10-04T02:02:40;100949.47;;;12.75;61.47
68654;BME280;55636;51.108;13.622;2022-10-04T02:03:52;100941.16;;;12.75;61.44
68654;BME280;55636;51.108;13.622;2022-10-04T02:04:56;100937.53;;;12.74;61.52
68654;BME280;55636;51.108;13.622;2022-10-04T02:06:03;100941.44;;;12.73;61.27
68654;BME280;55636;51.108;13.622;2022-10-04T02:07:12;100938.66;;;12.73;61.62
68654;BME280;55636;51.108;13.622;2022-10-04T02:08:17;100933.34;;;12.72;61.44
68654;BME280;55636;51.108;13.622;2022-10-04T02:09:27;100931.44;;;12.72;61.43
68654;BME280;55636;51.108;13.622;2022-10-04T02:10:36;100935.28;;;12.71;61.51
68654;BME280;55636;51.108;13.622;2022-10-04T02:11:46;100943.63;;;12.71;61.57
68654;BME280;55636;51.108;13.622;2022-10-04T02:12:54;100933.63;;;12.70;61.30
68654;BME280;55636;51.108;13.622;2022-10-04T02:13:58;100930.03;;;12.70;61.29
68654;BME280;55636;51.108;13.622;2022-10-04T02:15:06;100928.34;;;12.68;61.56
68654;BME280;55636;51.108;13.622;2022-10-04T02:16:10;100935.56;;;12.70;61.46
68654;BME280;55636;51.108;13.622;2022-10-04T02:17:13;100934.72;;;12.69;61.36
68654;BME280;55636;51.108;13.622;2022-10-04T02:18:20;100931.94;;;12.69;61.43
68654;BME280;55636;51.108;13.622;2022-10-04T02:19:31;100929.44;;;12.67;61.50
68654;BME280;55636;51.108;13.622;2022-10-04T02:20:38;100929.44;;;12.67;61.50
68654;BME280;55636;51.108;13.622;2022-10-04T02:21:41;100933.28;;;12.66;61.53
68654;BME280;55636;51.108;13.622;2022-10-04T02:22:49;100933.06;;;12.68;61.43
68654;BME280;55636;51.108;13.622;2022-10-04T02:23:55;100931.38;;;12.67;61.37
68654;BME280;55636;51.108;13.622;2022-10-04T02:24:58;100930.53;;;12.66;61.26
68654;BME280;55636;51.108;13.622;2022-10-04T02:26:05;100934.41;;;12.65;61.35
68654;BME280;55636;51.108;13.622;2022-10-04T02:27:08;100925.25;;;12.65;61.58
68654;BME280;55636;51.108;13.622;2022-10-04T02:28:14;100928.03;;;12.65;61.36
68654;BME280;55636;51.108;13.622;2022-10-04T02:29:18;100930.78;;;12.65;61.53
68654;BME280;55636;51.108;13.622;2022-10-04T02:30:22;100928.03;;;12.65;61.59
68654;BME280;55636;51.108;13.622;2022-10-04T02:31:24;100922.75;;;12.63;61.70
68654;BME280;55636;51.108;13.622;2022-10-04T02:32:48;100929.13;;;12.64;61.46
68654;BME280;55636;51.108;13.622;2022-10-04T02:33:59;100933.00;;;12.63;61.46
68654;BME280;55636;51.108;13.622;2022-10-04T02:35:02;100935.78;;;12.63;61.38
68654;BME280;55636;51.108;13.622;2022-10-04T02:36:08;100933.00;;;12.63;61.26
68654;BME280;55636;51.108;13.622;2022-10-04T02:37:12;100928.56;;;12.62;61.33
68654;BME280;55636;51.108;13.622;2022-10-04T02:38:22;100927.72;;;12.61;61.54
68654;BME280;55636;51.108;13.622;2022-10-04T02:39:28;100927.72;;;12.61;61.40
68654;BME280;55636;51.108;13.622;2022-10-04T02:42:03;100928.56;;;12.62;61.32
68654;BME280;55636;51.108;13.622;2022-10-04T02:43:15;100932.41;;;12.61;61.56
68654;BME280;55636;51.108;13.622;2022-10-04T02:44:40;100928.78;;;12.60;61.30
68654;BME280;55636;51.108;13.622;2022-10-04T02:45:58;100921.56;;;12.59;61.53
68654;BME280;55636;51.108;13.622;2022-10-04T02:47:18;100922.66;;;12.58;61.53
68654;BME280;55636;51.108;13.622;2022-10-04T02:48:29;100920.97;;;12.57;61.56
68654;BME280;55636;51.108;13.622;2022-10-04T02:49:44;100930.97;;;12.58;61.43
68654;BME280;55636;51.108;13.622;2022-10-04T02:50:50;100925.44;;;12.58;61.54
68654;BME280;55636;51.108;13.622;2022-10-04T02:52:02;100924.00;;;12.56;61.48
68654;BME280;55636;51.108;13.622;2022-10-04T02:53:18;100918.47;;;12.56;61.65
68654;BME280;55636;51.108;13.622;2022-10-04T02:55:39;100935.09;;;12.56;61.49
68654;BME280;55636;51.108;13.622;2022-10-04T02:56:43;100924.28;;;12.54;61.66
68654;BME280;55636;51.108;13.622;2022-10-04T02:57:46;100925.38;;;12.53;61.59
68654;BME280;55636;51.108;13.622;2022-10-04T02:58:48;100926.47;;;12.52;61.51
68654;BME280;55636;51.108;13.622;2022-10-04T03:00:03;100921.78;;;12.53;61.60
68654;BME280;55636;51.108;13.622;2022-10-04T03:04:24;100917.31;;;12.51;61.79
68654;BME280;55636;51.108;13.622;2022-10-04T03:05:28;100918.41;;;12.50;61.46
68654;BME280;55636;51.108;13.622;2022-10-04T03:06:31;100918.41;;;12.50;61.61
68654;BME280;55636;51.108;13.622;2022-10-04T03:07:35;100921.19;;;12.50;61.49
68654;BME280;55636;51.108;13.622;2022-10-04T03:08:50;100913.97;;;12.49;61.64
68654;BME280;55636;51.108;13.622;2022-10-04T03:09:53;100914.81;;;12.50;61.68
68654;BME280;55636;51.108;13.622;2022-10-04T03:10:57;100916.72;;;12.49;61.56
68654;BME280;55636;51.108;13.622;2022-10-04T03:12:03;100917.84;;;12.48;61.77
68654;BME280;55636;51.108;13.622;2022-10-04T03:13:06;100918.69;;;12.49;61.66
68654;BME280;55636;51.108;13.622;2022-10-04T03:14:17;100918.69;;;12.49;61.73
68654;BME280;55636;51.108;13.622;2022-10-04T03:15:21;100910.63;;;12.47;61.91
68654;BME280;55636;51.108;13.622;2022-10-04T03:16:24;100919.75;;;12.48;61.81
68654;BME280;55636;51.108;13.622;2022-10-04T03:17:27;100915.31;;;12.47;61.91
68654;BME280;55636;51.108;13.622;2022-10-04T03:18:34;100918.09;;;12.47;61.85
68654;BME280;55636;51.108;13.622;2022-10-04T03:19:37;100918.09;;;12.47;61.91
68654;BME280;55636;51.108;13.622;2022-10-04T03:20:40;100913.66;;;12.46;61.98
68654;BME280;55636;51.108;13.622;2022-10-04T03:21:47;100913.66;;;12.46;61.92
68654;BME280;55636;51.108;13.622;2022-10-04T03:22:52;100916.44;;;12.46;61.73
68654;BME280;55636;51.108;13.622;2022-10-04T03:23:56;100921.13;;;12.45;61.85
68654;BME280;55636;51.108;13.622;2022-10-04T03:25:02;100920.28;;;12.45;61.91
68654;BME280;55636;51.108;13.622;2022-10-04T03:26:31;100919.44;;;12.44;61.74
68654;BME280;55636;51.108;13.622;2022-10-04T03:27:38;100923.91;;;12.45;61.95
68654;BME280;55636;51.108;13.622;2022-10-04T03:28:40;100924.97;;;12.44;61.94
68654;BME280;55636;51.108;13.622;2022-10-04T03:29:45;100918.63;;;12.44;62.01
68654;BME280;55636;51.108;13.622;2022-10-04T03:30:48;100913.91;;;12.44;61.89
68654;BME280;55636;51.108;13.622;2022-10-04T03:31:53;100928.88;;;12.43;61.99
68654;BME280;55636;51.108;13.622;2022-10-04T03:32:59;100922.22;;;12.44;62.10
68654;BME280;55636;51.108;13.622;2022-10-04T03:34:01;100916.94;;;12.43;62.05
68654;BME280;55636;51.108;13.622;2022-10-04T03:35:06;100916.94;;;12.43;62.17
68654;BME280;55636;51.108;13.622;2022-10-04T03:36:17;100923.56;;;12.42;62.16
68654;BME280;55636;51.108;13.622;2022-10-04T03:37:20;100926.34;;;12.42;62.13
68654;BME280;55636;51.108;13.622;2022-10-04T03:38:23;100921.66;;;12.42;61.89
68654;BME280;55636;51.108;13.622;2022-10-04T03:39:37;100926.34;;;12.42;62.19
68654;BME280;55636;51.108;13.622;2022-10-04T03:40:46;100922.75;;;12.41;62.02
68654;BME280;55636;51.108;13.622;2022-10-04T03:41:55;100921.66;;;12.42;62.38
68654;BME280;55636;51.108;13.622;2022-10-04T03:43:00;100927.47;;;12.41;62.20
68654;BME280;55636;51.108;13.622;2022-10-04T03:44:19;100923.84;;;12.40;62.09
68654;BME280;55636;51.108;13.622;2022-10-04T03:45:25;100911.94;;;12.40;62.36
68654;BME280;55636;51.108;13.622;2022-10-04T03:46:29;100918.56;;;12.39;62.27
68654;BME280;55636;51.108;13.622;2022-10-04T03:47:34;100918.56;;;12.39;62.31
68654;BME280;55636;51.108;13.622;2022-10-04T03:48:44;100909.41;;;12.38;62.15
68654;BME280;55636;51.108;13.622;2022-10-04T03:49:48;100914.97;;;12.38;62.44
68654;BME280;55636;51.108;13.622;2022-10-04T03:50:52;100918.56;;;12.39;62.29
68654;BME280;55636;51.108;13.622;2022-10-04T03:51:56;100914.97;;;12.38;62.17
68654;BME280;55636;51.108;13.622;2022-10-04T03:53:06;100914.97;;;12.38;62.19
68654;BME280;55636;51.108;13.622;2022-10-04T03:54:16;100911.59;;;12.36;62.27
68654;BME280;55636;51.108;13.622;2022-10-04T03:55:22;100910.78;;;12.35;62.25
68654;BME280;55636;51.108;13.622;2022-10-04T03:56:28;100911.59;;;12.36;62.51
68654;BME280;55636;51.108;13.622;2022-10-04T03:57:31;100920.19;;;12.34;62.55
68654;BME280;55636;51.108;13.622;2022-10-04T03:58:38;100904.38;;;12.35;62.30
68654;BME280;55636;51.108;13.622;2022-10-04T03:59:40;100914.63;;;12.34;62.40
68654;BME280;55636;51.108;13.622;2022-10-04T04:02:03;100919.34;;;12.34;62.55
68654;BME280;55636;51.108;13.622;2022-10-04T04:03:15;100916.59;;;12.34;62.57
68654;BME280;55636;51.108;13.622;2022-10-04T04:04:40;100918.50;;;12.33;62.63
68654;BME280;55636;51.108;13.622;2022-10-04T04:05:48;100912.94;;;12.33;62.76
68654;BME280;55636;51.108;13.622;2022-10-04T04:07:00;100921.25;;;12.33;62.58
68654;BME280;55636;51.108;13.622;2022-10-04T04:10:42;100916.00;;;12.32;62.76
68654;BME280;55636;51.108;13.622;2022-10-04T04:11:48;100917.94;;;12.31;62.74
68654;BME280;55636;51.108;13.622;2022-10-04T04:12:52;100917.06;;;12.31;62.66
68654;BME280;55636;51.108;13.622;2022-10-04T04:14:06;100920.69;;;12.31;62.54
68654;BME280;55636;51.108;13.622;2022-10-04T04:15:11;100919.84;;;12.31;62.48
68654;BME280;55636;51.108;13.622;2022-10-04T04:16:14;100917.34;;;12.29;62.60
68654;BME280;55636;51.108;13.622;2022-10-04T04:17:27;100914.56;;;12.29;62.76
68654;BME280;55636;51.108;13.622;2022-10-04T04:18:33;100917.34;;;12.29;62.50
68654;BME280;55636;51.108;13.622;2022-10-04T04:19:36;100920.13;;;12.29;62.60
68654;BME280;55636;51.108;13.622;2022-10-04T04:20:40;100928.41;;;12.29;62.52
68654;BME280;55636;51.108;13.622;2022-10-04T04:21:43;100916.50;;;12.29;62.76
68654;BME280;55636;51.108;13.622;2022-10-04T04:24:28;100922.06;;;12.29;62.79
68654;BME280;55636;51.108;13.622;2022-10-04T04:25:36;100922.28;;;12.27;62.75
68654;BME280;55636;51.108;13.622;2022-10-04T04:26:44;100926.75;;;12.28;62.85
68654;BME280;55636;51.108;13.622;2022-10-04T04:27:51;100925.91;;;12.28;62.66
68654;BME280;55636;51.108;13.622;2022-10-04T04:29:25;100927.00;;;12.27;62.69
68654;BME280;55636;51.108;13.622;2022-10-04T04:30:33;100927.84;;;12.27;62.83
68654;BME280;55636;51.108;13.622;2022-10-04T04:31:48;100927.00;;;12.27;62.67
68654;BME280;55636;51.108;13.622;2022-10-04T04:32:55;100931.72;;;12.26;62.79
68654;BME280;55636;51.108;13.622;2022-10-04T04:34:04;100921.72;;;12.25;62.71
68654;BME280;55636;51.108;13.622;2022-10-04T04:35:32;100926.19;;;12.26;62.83
68654;BME280;55636;51.108;13.622;2022-10-04T04:36:40;100915.09;;;12.26;62.75
68654;BME280;55636;51.108;13.622;2022-10-04T04:37:43;100929.19;;;12.25;62.86
68654;BME280;55636;51.108;13.622;2022-10-04T04:38:45;100926.41;;;12.25;62.91
68654;BME280;55636;51.108;13.622;2022-10-04T04:40:24;100930.31;;;12.24;62.54
68654;BME280;55636;51.108;13.622;2022-10-04T04:41:29;100922.81;;;12.24;62.73
68654;BME280;55636;51.108;13.622;2022-10-04T04:42:33;100924.75;;;12.24;62.89
68654;BME280;55636;51.108;13.622;2022-10-04T04:43:36;100921.13;;;12.23;62.85
68654;BME280;55636;51.108;13.622;2022-10-04T04:44:49;100920.31;;;12.23;62.91
68654;BME280;55636;51.108;13.622;2022-10-04T04:45:53;100915.03;;;12.21;62.74
68654;BME280;55636;51.108;13.622;2022-10-04T04:47:28;100918.91;;;12.20;62.85
68654;BME280;55636;51.108;13.622;2022-10-04T04:48:31;100928.03;;;12.21;62.61
68654;BME280;55636;51.108;13.622;2022-10-04T04:49:37;100931.88;;;12.19;62.65
68654;BME280;55636;51.108;13.622;2022-10-04T04:50:41;100935.50;;;12.20;62.75
68654;BME280;55636;51.108;13.622;2022-10-04T04:51:52;100929.13;;;12.19;62.58
68654;BME280;55636;51.108;13.622;2022-10-04T04:54:01;100931.06;;;12.19;62.85
68654;BME280;55636;51.108;13.622;2022-10-04T04:55:05;100926.59;;;12.18;62.72
68654;BME280;55636;51.108;13.622;2022-10-04T04:56:25;100930.25;;;12.18;62.73
68654;BME280;55636;51.108;13.622;2022-10-04T04:57:28;100928.56;;;12.17;62.71
68654;BME280;55636;51.108;13.622;2022-10-04T04:58:42;100924.09;;;12.16;62.89
68654;BME280;55636;51.108;13.622;2022-10-04T04:59:51;100924.09;;;12.16;62.79
68654;BME280;55636;51.108;13.622;2022-10-04T05:00:59;100931.31;;;12.17;62.72
68654;BME280;55636;51.108;13.622;2022-10-04T05:02:02;100923.28;;;12.16;62.86
68654;BME280;55636;51.108;13.622;2022-10-04T05:03:14;100932.69;;;12.15;62.72
68654;BME280;55636;51.108;13.622;2022-10-04T05:04:21;100937.38;;;12.14;62.84
68654;BME280;55636;51.108;13.622;2022-10-04T05:06:29;100935.72;;;12.13;62.82
68654;BME280;55636;51.108;13.622;2022-10-04T05:07:31;100936.53;;;12.14;62.90
68654;BME280;55636;51.108;13.622;2022-10-04T05:08:34;100938.47;;;12.13;62.65
68654;BME280;55636;51.108;13.622;2022-10-04T05:09:42;100935.72;;;12.13;62.85
68654;BME280;55636;51.108;13.622;2022-10-04T05:11:11;100944.84;;;12.14;62.78
68654;BME280;55636;51.108;13.622;2022-10-04T05:12:21;100938.47;;;12.13;62.65
68654;BME280;55636;51.108;13.622;2022-10-04T05:13:46;100943.16;;;12.13;62.64
68654;BME280;55636;51.108;13.622;2022-10-04T05:14:51;100944.28;;;12.12;62.54
68654;BME280;55636;51.108;13.622;2022-10-04T05:15:57;100945.09;;;12.12;62.54
68654;BME280;55636;51.108;13.622;2022-10-04T05:17:00;100945.38;;;12.11;62.53
68654;BME280;55636;51.108;13.622;2022-10-04T05:19:34;100952.00;;;12.10;62.45
68654;BME280;55636;51.108;13.622;2022-10-04T05:20:37;100951.41;;;12.08;62.65
68654;BME280;55636;51.108;13.622;2022-10-04T05:21:43;100953.94;;;12.09;62.58
68654;BME280;55636;51.108;13.622;2022-10-04T05:22:48;100946.97;;;12.07;62.47
68654;BME280;55636;51.108;13.622;2022-10-04T05:23:52;100946.13;;;12.06;62.46
68654;BME280;55636;51.108;13.622;2022-10-04T05:25:00;100945.31;;;12.06;62.49
68654;BME280;55636;51.108;13.622;2022-10-04T05:26:10;100951.09;;;12.04;62.31
68654;BME280;55636;51.108;13.622;2022-10-04T05:27:16;100948.34;;;12.04;62.40
68654;BME280;55636;51.108;13.622;2022-10-04T05:28:24;100952.19;;;12.03;62.68
68654;BME280;55636;51.108;13.622;2022-10-04T05:29:31;100966.03;;;12.03;62.67
68654;BME280;55636;51.108;13.622;2022-10-04T05:30:46;100951.34;;;12.02;62.69
68654;BME280;55636;51.108;13.622;2022-10-04T05:31:54;100960.75;;;12.01;62.56
68654;BME280;55636;51.108;13.622;2022-10-04T05:33:14;100953.53;;;12.00;62.44
68654;BME280;55636;51.108;13.622;2022-10-04T05:34:30;100961.00;;;12.00;62.73
68654;BME280;55636;51.108;13.622;2022-10-04T05:38:54;100956.56;;;11.99;62.49
68654;BME280;55636;51.108;13.622;2022-10-04T05:44:35;100969.00;;;11.96;62.70
68654;BME280;55636;51.108;13.622;2022-10-04T05:45:38;100958.19;;;11.95;62.44
68654;BME280;55636;51.108;13.622;2022-10-04T05:46:43;100960.94;;;11.95;62.82
68654;BME280;55636;51.108;13.622;2022-10-04T05:47:49;100963.72;;;11.95;62.70
68654;BME280;55636;51.108;13.622;2022-10-04T05:48:54;100963.94;;;11.93;62.69
68654;BME280;55636;51.108;13.622;2022-10-04T05:49:58;100971.16;;;11.94;62.57
68654;BME280;55636;51.108;13.622;2022-10-04T05:51:11;100972.25;;;11.93;62.85
68654;BME280;55636;51.108;13.622;2022-10-04T05:52:26;100966.97;;;11.92;62.70
68654;BME280;55636;51.108;13.622;2022-10-04T05:53:31;100968.41;;;11.94;62.76
68654;BME280;55636;51.108;13.622;2022-10-04T05:54:34;100968.41;;;11.94;62.75
68654;BME280;55636;51.108;13.622;2022-10-04T05:55:49;100972.03;;;11.95;62.90
68654;BME280;55636;51.108;13.622;2022-10-04T05:57:02;100977.56;;;11.95;62.90
68654;BME280;55636;51.108;13.622;2022-10-04T06:05:49;100980.88;;;11.97;62.66
68654;BME280;55636;51.108;13.622;2022-10-04T06:06:57;100980.88;;;11.97;62.82
68654;BME280;55636;51.108;13.622;2022-10-04T06:08:11;100978.94;;;11.97;62.55
68654;BME280;55636;51.108;13.622;2022-10-04T06:10:59;100985.06;;;11.99;62.56
68654;BME280;55636;51.108;13.622;2022-10-04T06:21:30;100993.97;;;12.01;62.16
68654;BME280;55636;51.108;13.622;2022-10-04T06:22:43;100987.31;;;12.02;62.23
68654;BME280;55636;51.108;13.622;2022-10-04T06:23:58;100984.56;;;12.02;62.09
68654;BME280;55636;51.108;13.622;2022-10-04T06:25:04;100986.25;;;12.04;62.37
68654;BME280;55636;51.108;13.622;2022-10-04T06:26:12;100997.31;;;12.04;62.14
68654;BME280;55636;51.108;13.622;2022-10-04T06:29:34;100989.59;;;12.06;62.22
68654;BME280;55636;51.108;13.622;2022-10-04T06:36:06;100983.28;;;12.10;62.13
68654;BME280;55636;51.108;13.622;2022-10-04T06:37:27;100990.50;;;12.11;62.32
68654;BME280;55636;51.108;13.622;2022-10-04T06:42:03;100994.44;;;12.15;62.07
68654;BME280;55636;51.108;13.622;2022-10-04T06:47:23;100995.38;;;12.21;62.08
68654;BME280;55636;51.108;13.622;2022-10-04T06:49:59;100999.78;;;12.22;61.99
68654;BME280;55636;51.108;13.622;2022-10-04T06:51:32;101002.88;;;12.26;61.90
68654;BME280;55636;51.108;13.622;2022-10-04T06:52:48;101005.66;;;12.26;61.88
68654;BME280;55636;51.108;13.622;2022-10-04T07:02:19;101004.09;;;12.35;61.89
68654;BME280;55636;51.108;13.622;2022-10-04T07:03:36;101011.06;;;12.38;61.96
68654;BME280;55636;51.108;13.622;2022-10-04T07:04:56;101007.81;;;12.41;61.79
68654;BME280;55636;51.108;13.622;2022-10-04T07:06:22;101004.78;;;12.42;61.83
68654;BME280;55636;51.108;13.622;2022-10-04T07:07:33;101010.66;;;12.46;61.85
68654;BME280;55636;51.108;13.622;2022-10-04T07:08:48;101003.97;;;12.47;61.92
68654;BME280;55636;51.108;13.622;2022-10-04T07:10:00;101007.34;;;12.49;61.93
68654;BME280;55636;51.108;13.622;2022-10-04T07:11:16;101019.03;;;12.51;61.75
68654;BME280;55636;51.108;13.622;2022-10-04T07:12:20;101016.81;;;12.53;61.76
68654;BME280;55636;51.108;13.622;2022-10-04T07:13:30;101010.78;;;12.56;61.64
68654;BME280;55636;51.108;13.622;2022-10-04T07:14:47;101019.66;;;12.58;61.52
68654;BME280;55636;51.108;13.622;2022-10-04T07:16:07;101013.66;;;12.61;61.46
68654;BME280;55636;51.108;13.622;2022-10-04T07:17:16;101012.28;;;12.64;61.63
68654;BME280;55636;51.108;13.622;2022-10-04T07:19:53;101012.31;;;12.69;61.59
68654;BME280;55636;51.108;13.622;2022-10-04T07:21:01;101009.88;;;12.73;61.78
68654;BME280;55636;51.108;13.622;2022-10-04T07:24:20;101001.13;;;12.81;61.87
68654;BME280;55636;51.108;13.622;2022-10-04T07:25:28;101014.19;;;12.86;61.64
68654;BME280;55636;51.108;13.622;2022-10-04T07:26:46;101007.28;;;12.88;61.80
68654;BME280;55636;51.108;13.622;2022-10-04T07:27:54;101018.69;;;12.92;61.49
68654;BME280;55636;51.108;13.622;2022-10-04T07:29:31;101007.41;;;12.98;61.55
68654;BME280;55636;51.108;13.622;2022-10-04T07:30:56;101011.31;;;13.03;61.59